createdAt,value
2019-03-21T00:01:23.454Z,58.06
2019-03-21T00:03:54.847Z,58.35
2019-03-21T00:06:23.490Z,57.77
2019-03-21T00:08:52.059Z,58.27
2019-03-21T00:11:55.453Z,58.88
2019-03-21T00:14:55.642Z,59.06
2019-03-21T00:17:33.487Z,59.00
2019-03-21T00:20:02.146Z,58.62
2019-03-21T00:22:35.016Z,58.27
2019-03-21T00:25:04.426Z,58.74
2019-03-21T00:27:32.923Z,59.78
2019-03-21T00:30:01.577Z,60.21
2019-03-21T00:32:31.731Z,59.62
2019-03-21T00:35:00.383Z,59.64
2019-03-21T00:37:29.027Z,60.00
2019-03-21T00:39:57.726Z,60.91
2019-03-21T00:42:26.379Z,61.27
2019-03-21T00:44:56.602Z,60.91
2019-03-21T00:47:25.118Z,60.04
2019-03-21T00:49:59.451Z,59.55
2019-03-21T00:52:28.093Z,58.95
2019-03-21T00:54:58.344Z,58.66
2019-03-21T00:57:27.024Z,58.50
2019-03-21T00:59:55.735Z,59.17
2019-03-21T01:02:24.376Z,59.02
2019-03-21T01:04:53.604Z,59.40
2019-03-21T01:07:22.191Z,60.44
2019-03-21T01:09:50.847Z,60.54
2019-03-21T01:12:19.542Z,60.25
2019-03-21T01:14:48.189Z,60.64
2019-03-21T01:17:16.702Z,60.99
2019-03-21T01:19:45.381Z,61.47
2019-03-21T01:22:14.022Z,61.49
2019-03-21T01:24:42.522Z,61.78
2019-03-21T01:27:11.134Z,62.24
2019-03-21T01:29:39.778Z,62.08
2019-03-21T01:32:08.427Z,61.96
2019-03-21T01:34:37.332Z,61.95
2019-03-21T01:37:05.984Z,62.02
2019-03-21T01:39:34.625Z,61.69
2019-03-21T01:42:03.296Z,61.93
2019-03-21T01:44:40.512Z,61.91
2019-03-21T01:47:02.315Z,61.45
2019-03-21T01:49:31.010Z,61.89
2019-03-21T01:51:59.594Z,62.11
2019-03-21T01:54:28.230Z,61.51
2019-03-21T01:56:58.544Z,62.07
2019-03-21T01:59:27.112Z,62.37
2019-03-21T02:01:55.760Z,62.05
2019-03-21T02:04:24.532Z,62.28
2019-03-21T02:06:53.186Z,61.87
2019-03-21T02:09:21.758Z,62.27
2019-03-21T02:11:50.442Z,62.26
2019-03-21T02:14:19.206Z,61.46
2019-03-21T02:16:47.778Z,61.54
2019-03-21T02:19:16.482Z,61.63
2019-03-21T02:21:45.116Z,61.60
2019-03-21T02:24:13.768Z,62.29
2019-03-21T02:26:42.388Z,62.28
2019-03-21T02:29:11.027Z,61.62
2019-03-21T02:31:39.696Z,60.85
2019-03-21T02:34:08.238Z,60.52
2019-03-21T02:36:37.001Z,61.73
2019-03-21T02:39:07.018Z,61.69
2019-03-21T02:41:35.708Z,61.29
2019-03-21T02:44:04.358Z,62.44
2019-03-21T02:46:32.936Z,62.76
2019-03-21T02:49:01.583Z,62.83
2019-03-21T02:51:30.086Z,63.00
2019-03-21T02:53:58.745Z,63.20
2019-03-21T02:56:27.540Z,62.67
2019-03-21T02:58:57.163Z,62.79
2019-03-21T03:01:25.895Z,62.63
2019-03-21T03:03:54.622Z,62.86
2019-03-21T03:06:23.470Z,63.20
2019-03-21T03:08:52.046Z,62.93
2019-03-21T03:11:22.410Z,63.14
2019-03-21T03:13:51.843Z,62.69
2019-03-21T03:16:22.326Z,62.76
2019-03-21T03:18:50.901Z,62.74
2019-03-21T03:21:19.560Z,62.99
2019-03-21T03:23:48.328Z,63.03
2019-03-21T03:26:16.981Z,63.20
2019-03-21T03:28:47.511Z,62.87
2019-03-21T03:31:16.198Z,63.07
2019-03-21T03:33:45.163Z,63.99
2019-03-21T03:36:15.691Z,63.26
2019-03-21T03:38:44.570Z,63.76
2019-03-21T03:41:15.215Z,63.84
2019-03-21T03:43:43.878Z,63.58
2019-03-21T03:46:12.566Z,63.55
2019-03-21T03:48:41.220Z,63.80
2019-03-21T03:51:09.869Z,63.51
2019-03-21T03:53:42.028Z,63.77
2019-03-21T03:56:08.798Z,64.01
2019-03-21T03:58:53.221Z,63.78
2019-03-21T04:01:21.857Z,63.83
2019-03-21T04:03:51.557Z,64.09
2019-03-21T04:06:21.206Z,63.67
2019-03-21T04:08:49.855Z,63.31
2019-03-21T04:11:19.951Z,62.87
2019-03-21T04:13:48.644Z,62.07
2019-03-21T04:16:17.663Z,61.67
2019-03-21T04:18:46.242Z,61.37
2019-03-21T04:21:16.704Z,61.19
2019-03-21T04:23:45.361Z,61.22
2019-03-21T04:26:16.921Z,61.12
2019-03-21T04:28:45.543Z,61.15
2019-03-21T04:31:15.384Z,61.28
2019-03-21T04:33:45.826Z,60.52
2019-03-21T04:36:14.508Z,59.65
2019-03-21T04:38:43.254Z,60.83
2019-03-21T04:41:11.825Z,60.67
2019-03-21T04:43:40.518Z,60.86
2019-03-21T04:46:09.260Z,60.43
2019-03-21T04:48:37.839Z,59.95
2019-03-21T04:51:06.564Z,59.62
2019-03-21T04:53:35.236Z,59.30
2019-03-21T04:56:03.908Z,59.14
2019-03-21T04:58:32.567Z,59.05
2019-03-21T05:01:01.313Z,59.12
2019-03-21T05:03:31.399Z,58.91
2019-03-21T05:05:59.967Z,58.79
2019-03-21T05:08:28.603Z,58.72
2019-03-21T05:10:58.720Z,57.90
2019-03-21T05:13:27.496Z,58.05
2019-03-21T05:15:56.148Z,58.33
2019-03-21T05:18:52.039Z,57.91
2019-03-21T05:21:23.162Z,57.21
2019-03-21T05:23:51.744Z,58.42
2019-03-21T05:26:20.438Z,57.40
2019-03-21T05:28:49.097Z,57.79
2019-03-21T05:31:23.786Z,57.47
2019-03-21T05:33:52.540Z,56.89
2019-03-21T05:36:21.191Z,56.06
2019-03-21T05:38:51.347Z,55.53
2019-03-21T05:41:20.037Z,61.46
2019-03-21T05:43:57.465Z,55.35
2019-03-21T05:46:27.226Z,52.70
2019-03-21T05:48:56.111Z,50.71
2019-03-21T05:51:24.907Z,49.94
2019-03-21T05:53:53.838Z,48.60
2019-03-21T05:56:22.493Z,49.47
2019-03-21T05:58:51.001Z,48.41
2019-03-21T06:01:19.651Z,47.59
2019-03-21T06:03:50.638Z,49.67
2019-03-21T06:06:38.388Z,49.71
2019-03-21T06:09:13.838Z,50.36
2019-03-21T06:11:45.754Z,50.26
2019-03-21T06:14:14.695Z,50.75
2019-03-21T06:16:43.429Z,49.99
2019-03-21T06:19:15.155Z,50.66
2019-03-21T06:21:58.548Z,50.61
2019-03-21T06:24:30.193Z,49.67
2019-03-21T06:27:27.077Z,49.55
2019-03-21T06:30:00.722Z,49.94
2019-03-21T06:32:29.559Z,50.23
2019-03-21T06:34:58.531Z,50.13
2019-03-21T06:37:28.883Z,52.79
2019-03-21T06:39:57.802Z,50.95
2019-03-21T06:42:28.254Z,51.09
2019-03-21T06:44:57.000Z,50.58
2019-03-21T06:47:25.673Z,51.77
2019-03-21T06:49:56.345Z,51.45
2019-03-21T06:52:25.021Z,51.08
2019-03-21T06:54:53.666Z,50.97
2019-03-21T06:57:23.179Z,49.11
2019-03-21T06:59:51.930Z,48.25
2019-03-21T07:02:20.884Z,47.47
2019-03-21T07:04:49.678Z,46.97
2019-03-21T07:07:18.410Z,46.26
2019-03-21T07:09:47.338Z,46.44
2019-03-21T07:12:16.035Z,46.27
2019-03-21T07:14:44.685Z,45.84
2019-03-21T07:17:13.512Z,44.96
2019-03-21T07:19:42.300Z,44.64
2019-03-21T07:22:12.360Z,44.84
2019-03-21T07:24:41.476Z,44.35
2019-03-21T07:27:10.192Z,44.94
2019-03-21T07:29:40.465Z,44.95
2019-03-21T07:32:09.226Z,44.05
2019-03-21T07:34:39.461Z,44.24
2019-03-21T07:37:08.204Z,43.97
2019-03-21T07:39:36.811Z,43.42
2019-03-21T07:42:05.611Z,43.30
2019-03-21T07:44:34.335Z,43.78
2019-03-21T07:47:12.283Z,43.71
2019-03-21T07:49:33.418Z,43.62
2019-03-21T07:52:02.165Z,42.46
2019-03-21T07:54:32.359Z,42.46
2019-03-21T07:57:01.466Z,42.50
2019-03-21T07:59:30.065Z,43.31
2019-03-21T08:01:58.747Z,42.18
2019-03-21T08:04:27.661Z,41.83
2019-03-21T08:06:56.261Z,41.89
2019-03-21T08:09:24.979Z,40.81
2019-03-21T08:11:53.775Z,41.23
2019-03-21T08:14:22.363Z,41.48
2019-03-21T08:16:51.013Z,40.94
2019-03-21T08:19:21.245Z,40.83
2019-03-21T08:21:49.908Z,40.93
2019-03-21T08:24:18.590Z,40.16
2019-03-21T08:26:47.508Z,40.04
2019-03-21T08:29:16.231Z,39.79
2019-03-21T08:31:45.996Z,40.52
2019-03-21T08:34:15.045Z,39.34
2019-03-21T08:36:43.965Z,39.49
2019-03-21T08:39:12.694Z,38.97
2019-03-21T08:41:41.714Z,39.10
2019-03-21T08:44:10.377Z,38.11
2019-03-21T08:46:40.526Z,39.83
2019-03-21T08:49:09.283Z,38.39
2019-03-21T08:51:39.528Z,39.87
2019-03-21T08:54:08.209Z,39.14
2019-03-21T08:56:36.923Z,38.83
2019-03-21T08:59:05.559Z,38.37
2019-03-21T09:01:34.239Z,37.79
2019-03-21T09:04:03.030Z,38.15
2019-03-21T09:06:31.755Z,38.58
2019-03-21T09:09:00.467Z,38.04
2019-03-21T09:11:29.160Z,38.17
2019-03-21T09:13:58.206Z,37.64
2019-03-21T09:16:27.237Z,37.18
2019-03-21T09:18:56.011Z,37.34
2019-03-21T09:21:26.300Z,38.23
2019-03-21T09:23:54.963Z,37.82
2019-03-21T09:26:23.658Z,37.69
2019-03-21T09:28:53.564Z,37.15
2019-03-21T09:31:25.393Z,36.60
2019-03-21T09:33:54.081Z,36.10
2019-03-21T09:36:22.793Z,36.79
2019-03-21T09:38:51.466Z,37.81
2019-03-21T09:41:20.188Z,37.42
2019-03-21T09:43:48.866Z,37.20
2019-03-21T09:46:17.547Z,37.54
2019-03-21T09:48:46.663Z,38.26
2019-03-21T09:51:16.796Z,37.46
2019-03-21T09:53:45.447Z,37.76
2019-03-21T09:56:14.089Z,37.43
2019-03-21T09:58:42.782Z,37.02
2019-03-21T10:01:11.395Z,37.43
2019-03-21T10:03:40.586Z,36.53
2019-03-21T10:06:09.207Z,36.49
2019-03-21T10:08:37.853Z,36.42
2019-03-21T10:11:06.635Z,35.93
2019-03-21T10:13:35.362Z,35.14
2019-03-21T10:16:04.415Z,35.14
2019-03-21T10:18:33.231Z,35.66
2019-03-21T10:21:01.884Z,36.49
2019-03-21T10:23:32.171Z,37.42
2019-03-21T10:26:00.977Z,37.64
2019-03-21T10:28:29.703Z,37.62
2019-03-21T10:30:58.217Z,37.15
2019-03-21T10:33:27.008Z,36.34
2019-03-21T10:35:55.785Z,36.19
2019-03-21T10:38:25.431Z,35.97
2019-03-21T10:40:54.148Z,36.36
2019-03-21T10:43:24.660Z,35.39
2019-03-21T10:45:53.301Z,35.99
2019-03-21T10:48:23.558Z,35.94
2019-03-21T10:50:52.463Z,35.20
2019-03-21T10:53:21.067Z,34.62
2019-03-21T10:55:49.791Z,35.26
2019-03-21T10:58:18.524Z,34.94
2019-03-21T11:00:47.200Z,34.45
2019-03-21T11:03:16.520Z,34.71
2019-03-21T11:05:45.523Z,35.41
2019-03-21T11:08:14.238Z,35.97
2019-03-21T11:10:42.953Z,35.54
2019-03-21T11:13:11.622Z,34.99
2019-03-21T11:15:40.301Z,34.55
2019-03-21T11:18:09.115Z,33.57
2019-03-21T11:20:39.182Z,34.31
2019-03-21T11:23:08.144Z,34.31
2019-03-21T11:25:36.855Z,33.90
2019-03-21T11:28:05.741Z,34.55
2019-03-21T11:30:40.337Z,34.55
2019-03-21T11:33:08.985Z,33.49
2019-03-21T11:35:39.085Z,34.41
2019-03-21T11:38:07.825Z,34.01
2019-03-21T11:40:36.542Z,33.48
2019-03-21T11:43:07.483Z,32.85
2019-03-21T11:45:37.758Z,32.85
2019-03-21T11:48:06.639Z,33.24
2019-03-21T11:50:35.786Z,33.63
2019-03-21T11:53:05.863Z,33.70
2019-03-21T11:55:37.379Z,32.79
2019-03-21T11:58:06.059Z,32.76
2019-03-21T12:00:42.961Z,32.80
2019-03-21T12:03:05.334Z,32.31
2019-03-21T12:05:33.976Z,32.83
2019-03-21T12:08:04.251Z,33.85
2019-03-21T12:10:34.032Z,33.23
2019-03-21T12:13:02.763Z,32.84
2019-03-21T12:15:31.483Z,32.58
2019-03-21T12:18:00.080Z,33.39
2019-03-21T12:20:31.727Z,33.75
2019-03-21T12:23:00.881Z,33.58
2019-03-21T12:25:29.623Z,32.52
2019-03-21T12:27:58.348Z,32.58
2019-03-21T12:30:37.071Z,32.64
2019-03-21T12:33:07.200Z,33.15
2019-03-21T12:35:37.430Z,33.57
2019-03-21T12:38:06.748Z,34.49
2019-03-21T12:40:35.503Z,34.46
2019-03-21T12:43:06.928Z,34.19
2019-03-21T12:45:35.621Z,33.54
2019-03-21T12:48:04.765Z,33.68
2019-03-21T12:50:33.442Z,33.34
2019-03-21T12:53:02.601Z,33.16
2019-03-21T12:55:31.281Z,32.81
2019-03-21T12:57:59.952Z,32.92
2019-03-21T13:00:40.672Z,32.91
2019-03-21T13:03:09.312Z,32.91
2019-03-21T13:05:38.749Z,32.65
2019-03-21T13:08:07.985Z,32.61
2019-03-21T13:10:36.664Z,32.19
2019-03-21T13:13:07.263Z,32.26
2019-03-21T13:15:38.019Z,32.41
2019-03-21T13:18:07.717Z,31.93
2019-03-21T13:20:38.014Z,32.04
2019-03-21T13:23:10.735Z,31.71
2019-03-21T13:25:39.294Z,32.06
2019-03-21T13:28:08.136Z,31.58
2019-03-21T13:30:36.966Z,32.75
2019-03-21T13:33:06.037Z,32.70
2019-03-21T13:35:34.762Z,32.94
2019-03-21T13:38:03.879Z,32.90
2019-03-21T13:40:32.645Z,33.10
2019-03-21T13:43:01.111Z,32.96
2019-03-21T13:45:29.989Z,33.06
2019-03-21T13:47:58.647Z,33.38
2019-03-21T13:50:27.389Z,33.38
2019-03-21T13:53:04.870Z,33.25
2019-03-21T13:55:26.635Z,33.25
2019-03-21T13:57:55.292Z,33.73
2019-03-21T14:00:24.343Z,33.28
2019-03-21T14:02:53.213Z,33.28
2019-03-21T14:05:21.856Z,33.22
2019-03-21T14:07:50.721Z,33.22
2019-03-21T14:10:19.488Z,33.53
2019-03-21T14:12:48.146Z,33.54
2019-03-21T14:15:17.920Z,33.75
2019-03-21T14:17:46.702Z,33.44
2019-03-21T14:20:16.756Z,33.11
2019-03-21T14:22:46.381Z,33.23
2019-03-21T14:25:15.451Z,34.04
2019-03-21T14:27:44.197Z,34.25
2019-03-21T14:30:15.619Z,34.39
2019-03-21T14:32:44.463Z,35.12
2019-03-21T14:35:13.604Z,34.37
2019-03-21T14:37:42.334Z,34.58
2019-03-21T14:40:13.532Z,34.45
2019-03-21T14:42:43.195Z,34.48
2019-03-21T14:45:16.745Z,34.68
2019-03-21T14:47:45.638Z,34.74
2019-03-21T14:50:16.013Z,34.88
2019-03-21T14:52:44.709Z,35.06
2019-03-21T14:55:15.792Z,35.38
2019-03-21T14:57:44.466Z,35.13
2019-03-21T15:00:15.965Z,34.96
2019-03-21T15:02:44.625Z,35.33
2019-03-21T15:05:14.715Z,35.11
2019-03-21T15:07:43.470Z,35.03
2019-03-21T15:10:15.318Z,35.36
2019-03-21T15:12:44.070Z,35.35
2019-03-21T15:15:14.776Z,35.13
2019-03-21T15:17:43.419Z,35.11
2019-03-21T15:20:14.983Z,35.19
2019-03-21T15:22:43.781Z,35.25
2019-03-21T15:25:13.736Z,35.09
2019-03-21T15:27:42.463Z,35.24
2019-03-21T15:30:19.166Z,35.33
2019-03-21T15:32:48.000Z,35.33
2019-03-21T15:35:18.060Z,35.12
2019-03-21T15:37:46.873Z,35.08
2019-03-21T15:40:16.622Z,35.06
2019-03-21T15:42:45.379Z,34.84
2019-03-21T15:45:22.744Z,34.99
2019-03-21T15:47:47.632Z,35.45
2019-03-21T15:50:37.293Z,35.37
2019-03-21T15:53:05.156Z,35.30
2019-03-21T15:55:37.181Z,35.32
2019-03-21T15:58:07.694Z,35.30
2019-03-21T16:00:38.481Z,35.47
2019-03-21T16:03:08.586Z,35.42
2019-03-21T16:05:38.919Z,35.24
2019-03-21T16:08:12.008Z,35.33
2019-03-21T16:10:42.217Z,35.93
2019-03-21T16:13:10.886Z,36.35
2019-03-21T16:15:39.559Z,36.10
2019-03-21T16:18:08.186Z,36.70
2019-03-21T16:20:36.898Z,36.81
2019-03-21T16:23:05.653Z,36.96
2019-03-21T16:25:38.414Z,37.21
2019-03-21T16:28:08.931Z,37.22
2019-03-21T16:30:37.658Z,37.37
2019-03-21T16:33:06.331Z,37.68
2019-03-21T16:35:35.354Z,37.64
2019-03-21T16:38:05.696Z,37.76
2019-03-21T16:40:34.368Z,37.82
2019-03-21T16:43:05.821Z,37.96
2019-03-21T16:45:37.786Z,38.26
2019-03-21T16:48:08.909Z,38.46
2019-03-21T16:50:36.901Z,38.28
2019-03-21T16:53:05.723Z,38.63
2019-03-21T16:55:38.959Z,38.41
2019-03-21T16:58:09.831Z,38.65
2019-03-21T17:00:45.832Z,38.51
2019-03-21T17:03:16.141Z,38.53
2019-03-21T17:05:46.698Z,38.84
2019-03-21T17:08:15.343Z,38.74
2019-03-21T17:10:44.231Z,38.88
2019-03-21T17:13:13.489Z,38.97
2019-03-21T17:15:42.538Z,38.78
2019-03-21T17:18:11.404Z,39.14
2019-03-21T17:20:42.390Z,38.85
2019-03-21T17:23:11.207Z,39.04
2019-03-21T17:25:42.418Z,39.53
2019-03-21T17:28:11.262Z,39.13
2019-03-21T17:30:39.916Z,39.61
2019-03-21T17:33:08.722Z,39.58
2019-03-21T17:35:37.839Z,39.62
2019-03-21T17:38:06.450Z,39.70
2019-03-21T17:40:35.220Z,40.22
2019-03-21T17:43:03.889Z,40.25
2019-03-21T17:45:32.543Z,41.00
2019-03-21T17:48:01.489Z,40.55
2019-03-21T17:50:30.125Z,40.68
2019-03-21T17:52:58.925Z,41.54
2019-03-21T17:55:27.709Z,42.30
2019-03-21T17:57:56.353Z,43.06
2019-03-21T18:00:35.719Z,43.32
2019-03-21T18:03:04.741Z,42.84
2019-03-21T18:05:33.436Z,42.92
2019-03-21T18:08:02.139Z,43.07
2019-03-21T18:10:34.320Z,42.90
2019-03-21T18:13:04.575Z,42.63
2019-03-21T18:15:33.471Z,42.71
2019-03-21T18:18:02.124Z,42.78
2019-03-21T18:20:31.139Z,42.88
2019-03-21T18:22:59.831Z,43.40
2019-03-21T18:25:28.507Z,43.31
2019-03-21T18:27:57.161Z,43.36
2019-03-21T18:30:26.243Z,42.91
2019-03-21T18:32:54.909Z,43.13
2019-03-21T18:35:23.564Z,43.17
2019-03-21T18:37:52.236Z,42.91
2019-03-21T18:40:21.614Z,43.20
2019-03-21T18:42:50.340Z,43.60
2019-03-21T18:45:19.034Z,44.00
2019-03-21T18:47:48.162Z,44.47
2019-03-21T18:50:17.615Z,44.79
2019-03-21T18:52:46.385Z,44.82
2019-03-21T18:55:15.328Z,44.41
2019-03-21T18:57:44.023Z,44.23
2019-03-21T19:00:15.529Z,44.42
2019-03-21T19:02:44.186Z,44.58
2019-03-21T19:05:12.931Z,44.52
2019-03-21T19:07:41.633Z,43.98
2019-03-21T19:10:14.254Z,44.26
2019-03-21T19:12:42.831Z,44.23
2019-03-21T19:15:13.111Z,44.06
2019-03-21T19:17:41.774Z,43.80
2019-03-21T19:20:15.455Z,43.60
2019-03-21T19:22:44.181Z,43.43
2019-03-21T19:25:18.938Z,43.78
2019-03-21T19:27:44.472Z,43.47
2019-03-21T19:30:18.436Z,43.91
2019-03-21T19:32:47.259Z,43.97
2019-03-21T19:35:17.386Z,44.03
2019-03-21T19:37:46.269Z,43.98
2019-03-21T19:40:17.935Z,44.03
2019-03-21T19:42:46.593Z,44.33
2019-03-21T19:45:16.825Z,44.44
2019-03-21T19:47:45.564Z,44.61
2019-03-21T19:50:17.172Z,43.78
2019-03-21T19:52:45.862Z,44.04
2019-03-21T19:55:15.110Z,43.68
2019-03-21T19:57:43.754Z,44.73
2019-03-21T20:00:25.056Z,44.47
2019-03-21T20:02:53.724Z,45.00
2019-03-21T20:05:22.292Z,44.97
2019-03-21T20:07:50.957Z,46.00
2019-03-21T20:10:23.102Z,46.10
2019-03-21T20:12:51.740Z,46.19
2019-03-21T20:15:20.938Z,46.41
2019-03-21T20:17:49.606Z,46.68
2019-03-21T20:20:18.845Z,47.12
2019-03-21T20:22:47.833Z,47.56
2019-03-21T20:25:16.686Z,48.03
2019-03-21T20:27:45.335Z,48.33
2019-03-21T20:30:23.169Z,48.96
2019-03-21T20:32:51.813Z,49.76
2019-03-21T20:35:20.459Z,49.51
2019-03-21T20:37:49.041Z,49.69
2019-03-21T20:40:19.198Z,49.97
2019-03-21T20:42:48.013Z,49.93
2019-03-21T20:45:19.276Z,49.65
2019-03-21T20:47:48.192Z,49.56
2019-03-21T20:50:18.603Z,49.60
2019-03-21T20:52:47.231Z,49.81
2019-03-21T20:55:16.257Z,49.66
2019-03-21T20:57:45.037Z,49.63
2019-03-21T21:00:24.103Z,50.60
2019-03-21T21:02:55.115Z,50.55
2019-03-21T21:05:25.563Z,50.72
2019-03-21T21:07:54.272Z,51.13
2019-03-21T21:10:23.028Z,50.99
2019-03-21T21:12:51.692Z,50.71
2019-03-21T21:15:20.318Z,51.04
2019-03-21T21:17:49.150Z,51.19
2019-03-21T21:20:18.415Z,51.05
2019-03-21T21:22:49.610Z,51.69
2019-03-21T21:25:20.974Z,51.53
2019-03-21T21:27:50.616Z,51.61
2019-03-21T21:30:23.013Z,51.56
2019-03-21T21:32:53.422Z,51.31
2019-03-21T21:35:23.849Z,51.24
2019-03-21T21:37:52.525Z,50.41
2019-03-21T21:40:21.169Z,50.73
2019-03-21T21:42:49.994Z,51.20
2019-03-21T21:45:18.738Z,52.50
2019-03-21T21:47:47.381Z,52.77
2019-03-21T21:50:17.464Z,52.71
2019-03-21T21:52:46.199Z,52.56
2019-03-21T21:55:15.255Z,52.29
2019-03-21T21:57:43.874Z,52.75
2019-03-21T22:00:17.779Z,52.54
2019-03-21T22:02:46.642Z,52.64
2019-03-21T22:05:15.674Z,53.11
2019-03-21T22:07:44.258Z,53.52
2019-03-21T22:10:13.309Z,53.82
2019-03-21T22:12:42.220Z,53.48
2019-03-21T22:15:15.677Z,52.83
2019-03-21T22:17:44.394Z,52.87
2019-03-21T22:20:15.318Z,52.94
2019-03-21T22:22:44.471Z,54.01
2019-03-21T22:25:13.319Z,53.91
2019-03-21T22:27:41.953Z,53.83
2019-03-21T22:30:19.555Z,53.86
2019-03-21T22:32:48.255Z,54.01
2019-03-21T22:35:16.915Z,53.91
2019-03-21T22:37:45.552Z,54.55
2019-03-21T22:40:19.274Z,54.21
2019-03-21T22:42:48.164Z,54.00
2019-03-21T22:45:18.631Z,54.75
2019-03-21T22:47:50.245Z,54.86
2019-03-21T22:50:19.346Z,54.42
2019-03-21T22:52:48.154Z,54.78
2019-03-21T22:55:17.014Z,54.39
2019-03-21T22:57:45.660Z,54.30
2019-03-21T23:00:17.237Z,55.00
2019-03-21T23:02:49.939Z,54.87
2019-03-21T23:05:19.817Z,55.49
2019-03-21T23:07:48.487Z,54.90
2019-03-21T23:10:17.280Z,55.36
2019-03-21T23:12:45.930Z,54.83
2019-03-21T23:15:15.401Z,55.31
2019-03-21T23:17:44.084Z,55.68
2019-03-21T23:20:14.636Z,54.86
2019-03-21T23:22:44.066Z,55.32
2019-03-21T23:25:16.573Z,55.99
2019-03-21T23:27:44.701Z,56.15
2019-03-21T23:30:19.488Z,55.89
2019-03-21T23:32:48.349Z,55.86
2019-03-21T23:35:17.049Z,56.89
2019-03-21T23:37:45.694Z,56.46
2019-03-21T23:40:16.215Z,56.89
2019-03-21T23:42:44.944Z,56.97
2019-03-21T23:45:16.420Z,57.10
2019-03-21T23:47:47.357Z,57.01
2019-03-21T23:50:16.615Z,56.81
2019-03-21T23:52:45.266Z,56.78
2019-03-21T23:55:15.920Z,56.88
2019-03-21T23:57:44.512Z,57.54
